sensor_id;sensor_type;location;lat;lon;timestamp;temperature;humidity
15983;DHT22;14442;50.196;8.096;2023-07-02T00:01:35;21.70;61.90
15983;DHT22;14442;50.196;8.096;2023-07-02T00:04:02;21.70;61.90
15983;DHT22;14442;50.196;8.096;2023-07-02T00:06:29;21.70;61.90
15983;DHT22;14442;50.196;8.096;2023-07-02T00:08:58;21.70;61.90
15983;DHT22;14442;50.196;8.096;2023-07-02T00:11:24;21.70;61.90
15983;DHT22;14442;50.196;8.096;2023-07-02T00:13:51;21.70;61.90
15983;DHT22;14442;50.196;8.096;2023-07-02T00:16:19;21.70;61.90
15983;DHT22;14442;50.196;8.096;2023-07-02T00:18:46;21.70;61.80
15983;DHT22;14442;50.196;8.096;2023-07-02T00:21:18;21.60;61.70
15983;DHT22;14442;50.196;8.096;2023-07-02T00:23:44;21.70;61.80
15983;DHT22;14442;50.196;8.096;2023-07-02T00:26:11;21.70;61.80
15983;DHT22;14442;50.196;8.096;2023-07-02T00:28:38;21.70;61.80
15983;DHT22;14442;50.196;8.096;2023-07-02T00:31:04;21.60;61.70
15983;DHT22;14442;50.196;8.096;2023-07-02T00:33:32;21.60;61.70
15983;DHT22;14442;50.196;8.096;2023-07-02T00:35:59;21.60;61.70
15983;DHT22;14442;50.196;8.096;2023-07-02T00:38:26;21.60;61.70
15983;DHT22;14442;50.196;8.096;2023-07-02T00:40:53;21.60;61.70
15983;DHT22;14442;50.196;8.096;2023-07-02T00:43:19;21.60;61.70
15983;DHT22;14442;50.196;8.096;2023-07-02T00:45:46;21.60;61.70
15983;DHT22;14442;50.196;8.096;2023-07-02T00:48:13;21.60;61.70
15983;DHT22;14442;50.196;8.096;2023-07-02T00:50:41;21.60;61.70
15983;DHT22;14442;50.196;8.096;2023-07-02T00:53:08;21.60;61.70
15983;DHT22;14442;50.196;8.096;2023-07-02T00:55:34;21.60;61.70
15983;DHT22;14442;50.196;8.096;2023-07-02T00:58:01;21.60;61.70
15983;DHT22;14442;50.196;8.096;2023-07-02T01:00:28;21.60;61.70
15983;DHT22;14442;50.196;8.096;2023-07-02T01:02:56;21.60;61.70
15983;DHT22;14442;50.196;8.096;2023-07-02T01:05:25;21.60;61.70
15983;DHT22;14442;50.196;8.096;2023-07-02T01:07:53;21.60;61.70
15983;DHT22;14442;50.196;8.096;2023-07-02T01:10:19;21.60;61.70
15983;DHT22;14442;50.196;8.096;2023-07-02T01:12:47;21.60;61.60
15983;DHT22;14442;50.196;8.096;2023-07-02T01:15:14;21.60;61.70
15983;DHT22;14442;50.196;8.096;2023-07-02T01:17:41;21.60;61.70
15983;DHT22;14442;50.196;8.096;2023-07-02T01:20:11;21.60;61.70
15983;DHT22;14442;50.196;8.096;2023-07-02T01:22:38;21.60;61.70
15983;DHT22;14442;50.196;8.096;2023-07-02T01:25:05;21.60;61.70
15983;DHT22;14442;50.196;8.096;2023-07-02T01:27:34;21.50;61.60
15983;DHT22;14442;50.196;8.096;2023-07-02T01:30:01;21.60;61.70
15983;DHT22;14442;50.196;8.096;2023-07-02T01:32:29;21.60;61.70
15983;DHT22;14442;50.196;8.096;2023-07-02T01:34:56;21.60;61.70
15983;DHT22;14442;50.196;8.096;2023-07-02T01:37:25;21.60;61.70
15983;DHT22;14442;50.196;8.096;2023-07-02T01:39:52;21.50;61.60
15983;DHT22;14442;50.196;8.096;2023-07-02T01:42:20;21.50;61.50
15983;DHT22;14442;50.196;8.096;2023-07-02T01:44:48;21.50;61.50
15983;DHT22;14442;50.196;8.096;2023-07-02T01:47:16;21.50;61.50
15983;DHT22;14442;50.196;8.096;2023-07-02T01:49:45;21.50;61.50
15983;DHT22;14442;50.196;8.096;2023-07-02T01:52:12;21.50;61.50
15983;DHT22;14442;50.196;8.096;2023-07-02T01:54:40;21.50;61.50
15983;DHT22;14442;50.196;8.096;2023-07-02T01:57:06;21.50;61.60
15983;DHT22;14442;50.196;8.096;2023-07-02T01:59:33;21.50;61.50
15983;DHT22;14442;50.196;8.096;2023-07-02T02:02:00;21.50;61.50
15983;DHT22;14442;50.196;8.096;2023-07-02T02:04:27;21.50;61.50
15983;DHT22;14442;50.196;8.096;2023-07-02T02:06:54;21.50;61.50
15983;DHT22;14442;50.196;8.096;2023-07-02T02:09:21;21.50;61.50
15983;DHT22;14442;50.196;8.096;2023-07-02T02:11:50;21.50;61.50
15983;DHT22;14442;50.196;8.096;2023-07-02T02:14:17;21.50;61.50
15983;DHT22;14442;50.196;8.096;2023-07-02T02:16:44;21.50;61.50
15983;DHT22;14442;50.196;8.096;2023-07-02T02:19:12;21.50;61.50
15983;DHT22;14442;50.196;8.096;2023-07-02T02:21:40;21.50;61.50
15983;DHT22;14442;50.196;8.096;2023-07-02T02:24:06;21.40;62.10
15983;DHT22;14442;50.196;8.096;2023-07-02T02:26:33;21.50;62.20
15983;DHT22;14442;50.196;8.096;2023-07-02T02:29:01;21.50;61.50
15983;DHT22;14442;50.196;8.096;2023-07-02T02:31:28;21.50;61.40
15983;DHT22;14442;50.196;8.096;2023-07-02T02:33:55;21.40;62.00
15983;DHT22;14442;50.196;8.096;2023-07-02T02:36:22;21.40;61.30
15983;DHT22;14442;50.196;8.096;2023-07-02T02:38:48;21.40;61.30
15983;DHT22;14442;50.196;8.096;2023-07-02T02:41:15;21.40;61.30
15983;DHT22;14442;50.196;8.096;2023-07-02T02:43:42;21.40;61.30
15983;DHT22;14442;50.196;8.096;2023-07-02T02:46:11;21.40;61.20
15983;DHT22;14442;50.196;8.096;2023-07-02T02:48:37;21.40;61.30
15983;DHT22;14442;50.196;8.096;2023-07-02T02:51:04;21.40;61.20
15983;DHT22;14442;50.196;8.096;2023-07-02T02:53:31;21.40;61.30
15983;DHT22;14442;50.196;8.096;2023-07-02T02:55:57;21.40;61.20
15983;DHT22;14442;50.196;8.096;2023-07-02T02:58:24;21.40;61.20
15983;DHT22;14442;50.196;8.096;2023-07-02T03:00:53;21.40;61.20
15983;DHT22;14442;50.196;8.096;2023-07-02T03:03:21;21.40;61.10
15983;DHT22;14442;50.196;8.096;2023-07-02T03:05:49;21.40;61.10
15983;DHT22;14442;50.196;8.096;2023-07-02T03:08:16;21.40;61.10
15983;DHT22;14442;50.196;8.096;2023-07-02T03:10:43;21.40;61.10
15983;DHT22;14442;50.196;8.096;2023-07-02T03:13:09;21.40;61.10
15983;DHT22;14442;50.196;8.096;2023-07-02T03:15:36;21.40;61.00
15983;DHT22;14442;50.196;8.096;2023-07-02T03:18:03;21.40;61.00
15983;DHT22;14442;50.196;8.096;2023-07-02T03:20:31;21.40;61.00
15983;DHT22;14442;50.196;8.096;2023-07-02T03:22:57;21.40;61.00
15983;DHT22;14442;50.196;8.096;2023-07-02T03:25:24;21.40;61.00
15983;DHT22;14442;50.196;8.096;2023-07-02T03:27:51;21.40;61.00
15983;DHT22;14442;50.196;8.096;2023-07-02T03:30:18;21.30;60.80
15983;DHT22;14442;50.196;8.096;2023-07-02T03:32:44;21.40;60.90
15983;DHT22;14442;50.196;8.096;2023-07-02T03:35:11;21.40;60.80
15983;DHT22;14442;50.196;8.096;2023-07-02T03:37:39;21.40;60.80
15983;DHT22;14442;50.196;8.096;2023-07-02T03:40:08;21.30;60.70
15983;DHT22;14442;50.196;8.096;2023-07-02T03:42:35;21.30;60.70
15983;DHT22;14442;50.196;8.096;2023-07-02T03:45:01;21.30;60.70
15983;DHT22;14442;50.196;8.096;2023-07-02T03:47:29;21.40;60.70
15983;DHT22;14442;50.196;8.096;2023-07-02T03:49:56;21.30;60.60
15983;DHT22;14442;50.196;8.096;2023-07-02T03:52:22;21.30;60.60
15983;DHT22;14442;50.196;8.096;2023-07-02T03:54:51;21.30;60.70
15983;DHT22;14442;50.196;8.096;2023-07-02T03:57:17;21.30;60.70
15983;DHT22;14442;50.196;8.096;2023-07-02T03:59:44;21.30;60.70
15983;DHT22;14442;50.196;8.096;2023-07-02T04:02:11;21.40;60.80
15983;DHT22;14442;50.196;8.096;2023-07-02T04:04:37;21.30;60.70
15983;DHT22;14442;50.196;8.096;2023-07-02T04:07:04;21.30;60.70
15983;DHT22;14442;50.196;8.096;2023-07-02T04:09:31;21.30;60.70
15983;DHT22;14442;50.196;8.096;2023-07-02T04:12:00;21.30;60.70
15983;DHT22;14442;50.196;8.096;2023-07-02T04:14:26;21.30;60.70
15983;DHT22;14442;50.196;8.096;2023-07-02T04:16:53;21.30;60.70
15983;DHT22;14442;50.196;8.096;2023-07-02T04:19:20;21.30;60.70
15983;DHT22;14442;50.196;8.096;2023-07-02T04:21:47;21.30;60.70
15983;DHT22;14442;50.196;8.096;2023-07-02T04:24:13;21.30;60.70
15983;DHT22;14442;50.196;8.096;2023-07-02T04:26:40;21.30;60.60
15983;DHT22;14442;50.196;8.096;2023-07-02T04:29:09;21.30;60.60
15983;DHT22;14442;50.196;8.096;2023-07-02T04:31:36;21.30;60.60
15983;DHT22;14442;50.196;8.096;2023-07-02T04:34:03;21.30;60.60
15983;DHT22;14442;50.196;8.096;2023-07-02T04:36:31;21.30;60.60
15983;DHT22;14442;50.196;8.096;2023-07-02T04:38:58;21.30;60.60
15983;DHT22;14442;50.196;8.096;2023-07-02T04:41:25;21.30;60.60
15983;DHT22;14442;50.196;8.096;2023-07-02T04:43:52;21.30;60.60
15983;DHT22;14442;50.196;8.096;2023-07-02T04:46:20;21.30;60.60
15983;DHT22;14442;50.196;8.096;2023-07-02T04:48:46;21.30;60.60
15983;DHT22;14442;50.196;8.096;2023-07-02T04:51:13;21.30;60.60
15983;DHT22;14442;50.196;8.096;2023-07-02T04:53:40;21.30;60.50
15983;DHT22;14442;50.196;8.096;2023-07-02T04:56:07;21.30;60.60
15983;DHT22;14442;50.196;8.096;2023-07-02T04:58:34;21.30;60.60
15983;DHT22;14442;50.196;8.096;2023-07-02T05:01:00;21.30;60.60
15983;DHT22;14442;50.196;8.096;2023-07-02T05:03:29;21.30;60.50
15983;DHT22;14442;50.196;8.096;2023-07-02T05:05:55;21.30;60.50
15983;DHT22;14442;50.196;8.096;2023-07-02T05:08:22;21.30;60.50
15983;DHT22;14442;50.196;8.096;2023-07-02T05:10:49;21.30;60.50
15983;DHT22;14442;50.196;8.096;2023-07-02T05:13:15;21.30;60.50
15983;DHT22;14442;50.196;8.096;2023-07-02T05:15:42;21.30;60.50
15983;DHT22;14442;50.196;8.096;2023-07-02T05:18:09;21.30;60.50
15983;DHT22;14442;50.196;8.096;2023-07-02T05:20:37;21.30;60.40
15983;DHT22;14442;50.196;8.096;2023-07-02T05:23:03;21.30;60.40
15983;DHT22;14442;50.196;8.096;2023-07-02T05:25:30;21.30;60.50
15983;DHT22;14442;50.196;8.096;2023-07-02T05:27:58;21.30;60.50
15983;DHT22;14442;50.196;8.096;2023-07-02T05:30:24;21.30;60.60
15983;DHT22;14442;50.196;8.096;2023-07-02T05:32:51;21.30;60.50
15983;DHT22;14442;50.196;8.096;2023-07-02T05:35:18;21.30;60.50
15983;DHT22;14442;50.196;8.096;2023-07-02T05:37:46;21.30;60.50
15983;DHT22;14442;50.196;8.096;2023-07-02T05:40:12;21.30;60.50
15983;DHT22;14442;50.196;8.096;2023-07-02T05:42:39;21.30;60.50
15983;DHT22;14442;50.196;8.096;2023-07-02T05:45:08;21.30;60.40
15983;DHT22;14442;50.196;8.096;2023-07-02T05:47:35;21.30;60.40
15983;DHT22;14442;50.196;8.096;2023-07-02T05:50:02;21.30;60.40
15983;DHT22;14442;50.196;8.096;2023-07-02T05:52:29;21.30;60.30
15983;DHT22;14442;50.196;8.096;2023-07-02T05:54:57;21.40;60.50
15983;DHT22;14442;50.196;8.096;2023-07-02T05:57:24;21.40;60.50
15983;DHT22;14442;50.196;8.096;2023-07-02T05:59:51;21.40;60.60
15983;DHT22;14442;50.196;8.096;2023-07-02T06:02:17;21.40;60.50
15983;DHT22;14442;50.196;8.096;2023-07-02T06:04:44;21.40;60.60
15983;DHT22;14442;50.196;8.096;2023-07-02T06:07:11;21.50;60.60
15983;DHT22;14442;50.196;8.096;2023-07-02T06:09:37;21.50;60.70
15983;DHT22;14442;50.196;8.096;2023-07-02T06:12:06;21.50;60.60
15983;DHT22;14442;50.196;8.096;2023-07-02T06:14:33;21.50;60.70
15983;DHT22;14442;50.196;8.096;2023-07-02T06:16:59;21.50;60.80
15983;DHT22;14442;50.196;8.096;2023-07-02T06:19:29;21.50;60.80
15983;DHT22;14442;50.196;8.096;2023-07-02T06:21:55;21.50;60.80
15983;DHT22;14442;50.196;8.096;2023-07-02T06:24:22;21.50;60.80
15983;DHT22;14442;50.196;8.096;2023-07-02T06:26:49;21.50;60.90
15983;DHT22;14442;50.196;8.096;2023-07-02T06:29:17;21.50;60.90
15983;DHT22;14442;50.196;8.096;2023-07-02T06:31:43;21.50;60.80
15983;DHT22;14442;50.196;8.096;2023-07-02T06:34:10;21.60;60.90
15983;DHT22;14442;50.196;8.096;2023-07-02T06:36:37;21.50;61.00
15983;DHT22;14442;50.196;8.096;2023-07-02T06:39:03;21.50;60.60
15983;DHT22;14442;50.196;8.096;2023-07-02T06:41:30;21.40;60.20
15983;DHT22;14442;50.196;8.096;2023-07-02T06:43:57;21.40;60.50
15983;DHT22;14442;50.196;8.096;2023-07-02T06:46:25;21.40;60.30
15983;DHT22;14442;50.196;8.096;2023-07-02T06:48:51;21.40;60.40
15983;DHT22;14442;50.196;8.096;2023-07-02T06:51:18;21.40;60.30
15983;DHT22;14442;50.196;8.096;2023-07-02T06:53:46;21.40;60.30
15983;DHT22;14442;50.196;8.096;2023-07-02T06:56:13;21.40;60.30
15983;DHT22;14442;50.196;8.096;2023-07-02T06:58:42;21.40;60.40
15983;DHT22;14442;50.196;8.096;2023-07-02T07:01:09;21.40;60.40
15983;DHT22;14442;50.196;8.096;2023-07-02T07:03:37;21.40;60.40
15983;DHT22;14442;50.196;8.096;2023-07-02T07:06:04;21.40;60.30
15983;DHT22;14442;50.196;8.096;2023-07-02T07:08:30;21.40;60.30
15983;DHT22;14442;50.196;8.096;2023-07-02T07:10:57;21.40;60.30
15983;DHT22;14442;50.196;8.096;2023-07-02T07:13:24;21.40;60.30
15983;DHT22;14442;50.196;8.096;2023-07-02T07:15:50;21.40;60.30
15983;DHT22;14442;50.196;8.096;2023-07-02T07:18:17;21.40;60.30
15983;DHT22;14442;50.196;8.096;2023-07-02T07:20:46;21.40;60.20
15983;DHT22;14442;50.196;8.096;2023-07-02T07:23:13;21.40;60.20
15983;DHT22;14442;50.196;8.096;2023-07-02T07:25:40;21.40;60.20
15983;DHT22;14442;50.196;8.096;2023-07-02T07:28:07;21.40;60.20
15983;DHT22;14442;50.196;8.096;2023-07-02T07:30:37;21.40;60.20
15983;DHT22;14442;50.196;8.096;2023-07-02T07:33:04;21.40;60.20
15983;DHT22;14442;50.196;8.096;2023-07-02T07:35:30;21.40;60.20
15983;DHT22;14442;50.196;8.096;2023-07-02T07:37:58;21.40;60.10
15983;DHT22;14442;50.196;8.096;2023-07-02T07:40:25;21.40;60.10
15983;DHT22;14442;50.196;8.096;2023-07-02T07:42:52;21.40;60.10
15983;DHT22;14442;50.196;8.096;2023-07-02T07:45:18;21.40;60.10
15983;DHT22;14442;50.196;8.096;2023-07-02T07:47:45;21.40;60.10
15983;DHT22;14442;50.196;8.096;2023-07-02T07:50:12;21.40;60.00
15983;DHT22;14442;50.196;8.096;2023-07-02T07:52:38;21.40;60.00
15983;DHT22;14442;50.196;8.096;2023-07-02T07:55:07;21.40;60.00
15983;DHT22;14442;50.196;8.096;2023-07-02T07:57:34;21.40;60.00
15983;DHT22;14442;50.196;8.096;2023-07-02T08:00:02;21.40;60.00
15983;DHT22;14442;50.196;8.096;2023-07-02T08:02:31;21.40;60.00
15983;DHT22;14442;50.196;8.096;2023-07-02T08:04:57;21.40;60.00
15983;DHT22;14442;50.196;8.096;2023-07-02T08:07:24;21.40;60.00
15983;DHT22;14442;50.196;8.096;2023-07-02T08:09:51;21.50;60.00
15983;DHT22;14442;50.196;8.096;2023-07-02T08:12:19;21.40;59.90
15983;DHT22;14442;50.196;8.096;2023-07-02T08:14:46;21.40;59.90
15983;DHT22;14442;50.196;8.096;2023-07-02T08:17:12;21.40;59.90
15983;DHT22;14442;50.196;8.096;2023-07-02T08:19:39;21.40;59.90
15983;DHT22;14442;50.196;8.096;2023-07-02T08:22:06;21.40;59.90
15983;DHT22;14442;50.196;8.096;2023-07-02T08:24:33;21.40;59.80
15983;DHT22;14442;50.196;8.096;2023-07-02T08:26:59;21.50;59.80
15983;DHT22;14442;50.196;8.096;2023-07-02T08:29:29;21.50;59.80
15983;DHT22;14442;50.196;8.096;2023-07-02T08:31:56;21.50;59.70
15983;DHT22;14442;50.196;8.096;2023-07-02T08:34:23;21.50;59.70
15983;DHT22;14442;50.196;8.096;2023-07-02T08:36:49;21.50;59.70
15983;DHT22;14442;50.196;8.096;2023-07-02T08:39:17;21.50;59.70
15983;DHT22;14442;50.196;8.096;2023-07-02T08:41:44;21.50;59.70
15983;DHT22;14442;50.196;8.096;2023-07-02T08:44:12;21.50;59.70
15983;DHT22;14442;50.196;8.096;2023-07-02T08:46:41;21.50;59.70
15983;DHT22;14442;50.196;8.096;2023-07-02T08:49:08;21.50;59.70
15983;DHT22;14442;50.196;8.096;2023-07-02T08:51:35;21.50;59.50
15983;DHT22;14442;50.196;8.096;2023-07-02T08:54:02;21.50;59.60
15983;DHT22;14442;50.196;8.096;2023-07-02T08:56:29;21.50;60.20
15983;DHT22;14442;50.196;8.096;2023-07-02T08:58:56;21.50;59.60
15983;DHT22;14442;50.196;8.096;2023-07-02T09:01:22;21.50;59.60
15983;DHT22;14442;50.196;8.096;2023-07-02T09:03:50;21.50;59.60
15983;DHT22;14442;50.196;8.096;2023-07-02T09:06:18;21.50;59.50
15983;DHT22;14442;50.196;8.096;2023-07-02T09:08:45;21.50;59.60
15983;DHT22;14442;50.196;8.096;2023-07-02T09:11:14;21.50;59.60
15983;DHT22;14442;50.196;8.096;2023-07-02T09:13:46;21.50;59.60
15983;DHT22;14442;50.196;8.096;2023-07-02T09:16:24;21.50;59.60
15983;DHT22;14442;50.196;8.096;2023-07-02T09:19:00;21.50;59.60
15983;DHT22;14442;50.196;8.096;2023-07-02T09:21:27;21.50;59.50
15983;DHT22;14442;50.196;8.096;2023-07-02T09:23:54;21.50;59.50
15983;DHT22;14442;50.196;8.096;2023-07-02T09:26:21;21.50;60.00
15983;DHT22;14442;50.196;8.096;2023-07-02T09:28:48;21.50;59.40
15983;DHT22;14442;50.196;8.096;2023-07-02T09:31:15;21.50;59.40
15983;DHT22;14442;50.196;8.096;2023-07-02T09:33:42;21.50;59.50
15983;DHT22;14442;50.196;8.096;2023-07-02T09:36:11;21.50;59.40
15983;DHT22;14442;50.196;8.096;2023-07-02T09:38:39;21.50;59.40
15983;DHT22;14442;50.196;8.096;2023-07-02T09:41:07;21.50;59.40
15983;DHT22;14442;50.196;8.096;2023-07-02T09:43:34;21.50;59.40
15983;DHT22;14442;50.196;8.096;2023-07-02T09:46:01;21.60;59.50
15983;DHT22;14442;50.196;8.096;2023-07-02T09:48:29;21.50;59.40
15983;DHT22;14442;50.196;8.096;2023-07-02T09:51:00;21.50;59.40
15983;DHT22;14442;50.196;8.096;2023-07-02T09:53:28;21.60;59.40
15983;DHT22;14442;50.196;8.096;2023-07-02T09:55:55;21.60;59.40
15983;DHT22;14442;50.196;8.096;2023-07-02T09:58:22;21.60;59.30
15983;DHT22;14442;50.196;8.096;2023-07-02T10:00:49;21.60;59.30
15983;DHT22;14442;50.196;8.096;2023-07-02T10:03:16;21.60;59.40
15983;DHT22;14442;50.196;8.096;2023-07-02T10:05:43;21.60;59.20
15983;DHT22;14442;50.196;8.096;2023-07-02T10:08:14;21.60;59.30
15983;DHT22;14442;50.196;8.096;2023-07-02T10:10:43;21.60;59.30
15983;DHT22;14442;50.196;8.096;2023-07-02T10:13:11;21.60;59.30
15983;DHT22;14442;50.196;8.096;2023-07-02T10:15:37;21.60;59.20
15983;DHT22;14442;50.196;8.096;2023-07-02T10:18:05;21.60;59.20
15983;DHT22;14442;50.196;8.096;2023-07-02T10:20:34;21.60;59.20
15983;DHT22;14442;50.196;8.096;2023-07-02T10:23:01;21.60;59.20
15983;DHT22;14442;50.196;8.096;2023-07-02T10:25:29;21.60;59.10
15983;DHT22;14442;50.196;8.096;2023-07-02T10:27:58;21.60;59.10
15983;DHT22;14442;50.196;8.096;2023-07-02T10:30:32;21.60;59.20
15983;DHT22;14442;50.196;8.096;2023-07-02T10:33:09;21.60;59.20
15983;DHT22;14442;50.196;8.096;2023-07-02T10:35:36;21.60;59.20
15983;DHT22;14442;50.196;8.096;2023-07-02T10:38:04;21.60;59.20
15983;DHT22;14442;50.196;8.096;2023-07-02T10:40:32;21.60;59.10
15983;DHT22;14442;50.196;8.096;2023-07-02T10:43:00;21.70;59.20
15983;DHT22;14442;50.196;8.096;2023-07-02T10:45:34;21.70;59.10
15983;DHT22;14442;50.196;8.096;2023-07-02T10:48:02;21.60;59.00
15983;DHT22;14442;50.196;8.096;2023-07-02T10:50:30;21.70;59.70
15983;DHT22;14442;50.196;8.096;2023-07-02T10:52:57;21.70;59.10
15983;DHT22;14442;50.196;8.096;2023-07-02T10:55:26;21.60;59.00
15983;DHT22;14442;50.196;8.096;2023-07-02T10:58:04;21.60;59.00
15983;DHT22;14442;50.196;8.096;2023-07-02T11:00:31;21.60;59.00
15983;DHT22;14442;50.196;8.096;2023-07-02T11:02:59;21.60;59.00
15983;DHT22;14442;50.196;8.096;2023-07-02T11:05:26;21.60;58.90
15983;DHT22;14442;50.196;8.096;2023-07-02T11:07:52;21.70;59.00
15983;DHT22;14442;50.196;8.096;2023-07-02T11:10:23;21.70;59.60
15983;DHT22;14442;50.196;8.096;2023-07-02T11:12:50;21.70;58.90
15983;DHT22;14442;50.196;8.096;2023-07-02T11:15:18;21.70;59.00
15983;DHT22;14442;50.196;8.096;2023-07-02T11:17:45;21.70;58.90
15983;DHT22;14442;50.196;8.096;2023-07-02T11:20:13;21.70;58.90
15983;DHT22;14442;50.196;8.096;2023-07-02T11:22:40;21.70;58.80
15983;DHT22;14442;50.196;8.096;2023-07-02T11:25:16;21.70;58.70
15983;DHT22;14442;50.196;8.096;2023-07-02T11:27:43;21.70;58.80
15983;DHT22;14442;50.196;8.096;2023-07-02T11:30:11;21.70;58.70
15983;DHT22;14442;50.196;8.096;2023-07-02T11:32:50;21.70;58.60
15983;DHT22;14442;50.196;8.096;2023-07-02T11:35:17;21.80;58.70
15983;DHT22;14442;50.196;8.096;2023-07-02T11:37:44;21.70;58.60
15983;DHT22;14442;50.196;8.096;2023-07-02T11:40:12;21.80;58.60
15983;DHT22;14442;50.196;8.096;2023-07-02T11:42:40;21.80;58.70
15983;DHT22;14442;50.196;8.096;2023-07-02T11:45:07;21.80;58.60
15983;DHT22;14442;50.196;8.096;2023-07-02T11:47:34;21.80;58.60
15983;DHT22;14442;50.196;8.096;2023-07-02T11:50:02;21.80;58.60
15983;DHT22;14442;50.196;8.096;2023-07-02T11:52:29;21.80;58.50
15983;DHT22;14442;50.196;8.096;2023-07-02T11:54:56;21.80;58.50
15983;DHT22;14442;50.196;8.096;2023-07-02T11:57:23;21.80;58.40
15983;DHT22;14442;50.196;8.096;2023-07-02T11:59:49;21.80;58.40
15983;DHT22;14442;50.196;8.096;2023-07-02T12:02:17;21.80;58.40
15983;DHT22;14442;50.196;8.096;2023-07-02T12:04:44;21.80;58.40
15983;DHT22;14442;50.196;8.096;2023-07-02T12:07:13;21.80;58.40
15983;DHT22;14442;50.196;8.096;2023-07-02T12:09:40;21.80;58.30
15983;DHT22;14442;50.196;8.096;2023-07-02T12:12:07;21.80;58.40
15983;DHT22;14442;50.196;8.096;2023-07-02T12:14:34;21.80;58.30
15983;DHT22;14442;50.196;8.096;2023-07-02T12:17:00;21.90;58.40
15983;DHT22;14442;50.196;8.096;2023-07-02T12:19:27;21.80;58.30
15983;DHT22;14442;50.196;8.096;2023-07-02T12:21:54;21.80;58.30
15983;DHT22;14442;50.196;8.096;2023-07-02T12:24:22;21.90;58.40
15983;DHT22;14442;50.196;8.096;2023-07-02T12:26:48;21.90;58.40
15983;DHT22;14442;50.196;8.096;2023-07-02T12:29:15;21.90;58.40
15983;DHT22;14442;50.196;8.096;2023-07-02T12:31:42;21.90;58.30
15983;DHT22;14442;50.196;8.096;2023-07-02T12:34:08;21.90;58.30
15983;DHT22;14442;50.196;8.096;2023-07-02T12:36:35;21.90;58.30
15983;DHT22;14442;50.196;8.096;2023-07-02T12:39:02;21.90;58.30
15983;DHT22;14442;50.196;8.096;2023-07-02T12:41:31;21.90;58.20
15983;DHT22;14442;50.196;8.096;2023-07-02T12:43:58;21.90;58.20
15983;DHT22;14442;50.196;8.096;2023-07-02T12:46:24;21.90;58.10
15983;DHT22;14442;50.196;8.096;2023-07-02T12:48:51;21.90;58.00
15983;DHT22;14442;50.196;8.096;2023-07-02T12:51:18;21.90;58.00
15983;DHT22;14442;50.196;8.096;2023-07-02T12:53:44;21.90;58.00
15983;DHT22;14442;50.196;8.096;2023-07-02T12:56:11;21.90;58.00
15983;DHT22;14442;50.196;8.096;2023-07-02T12:58:39;21.90;58.00
15983;DHT22;14442;50.196;8.096;2023-07-02T13:01:06;21.90;58.00
15983;DHT22;14442;50.196;8.096;2023-07-02T13:03:32;21.90;58.10
15983;DHT22;14442;50.196;8.096;2023-07-02T13:05:59;21.90;58.10
15983;DHT22;14442;50.196;8.096;2023-07-02T13:08:26;21.90;58.10
15983;DHT22;14442;50.196;8.096;2023-07-02T13:10:52;21.90;58.10
15983;DHT22;14442;50.196;8.096;2023-07-02T13:13:19;21.90;58.10
15983;DHT22;14442;50.196;8.096;2023-07-02T13:15:47;21.90;58.10
15983;DHT22;14442;50.196;8.096;2023-07-02T13:18:14;21.90;58.00
15983;DHT22;14442;50.196;8.096;2023-07-02T13:20:41;21.90;58.00
15983;DHT22;14442;50.196;8.096;2023-07-02T13:23:07;21.90;58.00
15983;DHT22;14442;50.196;8.096;2023-07-02T13:25:34;21.90;58.00
15983;DHT22;14442;50.196;8.096;2023-07-02T13:28:01;21.90;58.00
15983;DHT22;14442;50.196;8.096;2023-07-02T13:30:27;21.90;58.00
15983;DHT22;14442;50.196;8.096;2023-07-02T13:32:57;21.90;58.00
15983;DHT22;14442;50.196;8.096;2023-07-02T13:35:24;21.90;58.00
15983;DHT22;14442;50.196;8.096;2023-07-02T13:37:50;21.90;58.10
15983;DHT22;14442;50.196;8.096;2023-07-02T13:40:18;21.90;58.10
15983;DHT22;14442;50.196;8.096;2023-07-02T13:42:44;21.90;58.10
15983;DHT22;14442;50.196;8.096;2023-07-02T13:45:11;21.90;58.10
15983;DHT22;14442;50.196;8.096;2023-07-02T13:47:38;21.90;58.10
15983;DHT22;14442;50.196;8.096;2023-07-02T13:50:07;21.90;58.10
15983;DHT22;14442;50.196;8.096;2023-07-02T13:52:33;21.80;58.00
15983;DHT22;14442;50.196;8.096;2023-07-02T13:55:00;21.90;58.00
15983;DHT22;14442;50.196;8.096;2023-07-02T13:57:27;21.90;57.90
15983;DHT22;14442;50.196;8.096;2023-07-02T13:59:55;22.00;58.00
15983;DHT22;14442;50.196;8.096;2023-07-02T14:02:22;22.00;57.90
15983;DHT22;14442;50.196;8.096;2023-07-02T14:04:49;22.00;57.90
15983;DHT22;14442;50.196;8.096;2023-07-02T14:07:16;22.10;57.90
15983;DHT22;14442;50.196;8.096;2023-07-02T14:09:43;22.10;57.90
15983;DHT22;14442;50.196;8.096;2023-07-02T14:12:09;22.00;57.80
15983;DHT22;14442;50.196;8.096;2023-07-02T14:14:37;22.00;57.80
15983;DHT22;14442;50.196;8.096;2023-07-02T14:17:05;22.00;57.80
15983;DHT22;14442;50.196;8.096;2023-07-02T14:19:32;22.00;57.70
15983;DHT22;14442;50.196;8.096;2023-07-02T14:21:59;22.00;57.70
15983;DHT22;14442;50.196;8.096;2023-07-02T14:24:26;22.00;57.70
15983;DHT22;14442;50.196;8.096;2023-07-02T14:26:52;22.10;57.80
15983;DHT22;14442;50.196;8.096;2023-07-02T14:29:19;22.10;57.70
15983;DHT22;14442;50.196;8.096;2023-07-02T14:31:46;22.10;57.70
15983;DHT22;14442;50.196;8.096;2023-07-02T14:34:14;22.10;57.60
15983;DHT22;14442;50.196;8.096;2023-07-02T14:36:40;22.10;57.70
15983;DHT22;14442;50.196;8.096;2023-07-02T14:39:07;22.10;57.60
15983;DHT22;14442;50.196;8.096;2023-07-02T14:41:34;22.10;57.60
15983;DHT22;14442;50.196;8.096;2023-07-02T14:44:01;22.20;57.80
15983;DHT22;14442;50.196;8.096;2023-07-02T14:46:28;22.20;57.70
15983;DHT22;14442;50.196;8.096;2023-07-02T14:48:55;22.20;57.60
15983;DHT22;14442;50.196;8.096;2023-07-02T14:51:23;22.20;57.60
15983;DHT22;14442;50.196;8.096;2023-07-02T14:53:50;22.10;57.60
15983;DHT22;14442;50.196;8.096;2023-07-02T14:56:17;22.10;57.60
15983;DHT22;14442;50.196;8.096;2023-07-02T14:58:44;22.10;57.60
15983;DHT22;14442;50.196;8.096;2023-07-02T15:01:11;22.10;57.50
15983;DHT22;14442;50.196;8.096;2023-07-02T15:03:37;22.20;57.60
15983;DHT22;14442;50.196;8.096;2023-07-02T15:06:09;22.20;57.40
15983;DHT22;14442;50.196;8.096;2023-07-02T15:08:38;22.30;57.50
15983;DHT22;14442;50.196;8.096;2023-07-02T15:11:05;22.20;57.40
15983;DHT22;14442;50.196;8.096;2023-07-02T15:13:32;22.20;57.30
15983;DHT22;14442;50.196;8.096;2023-07-02T15:15:58;22.20;57.30
15983;DHT22;14442;50.196;8.096;2023-07-02T15:18:25;22.20;57.40
15983;DHT22;14442;50.196;8.096;2023-07-02T15:20:53;22.20;57.40
15983;DHT22;14442;50.196;8.096;2023-07-02T15:23:20;22.30;57.50
15983;DHT22;14442;50.196;8.096;2023-07-02T15:25:51;22.40;57.50
15983;DHT22;14442;50.196;8.096;2023-07-02T15:28:19;22.40;57.80
15983;DHT22;14442;50.196;8.096;2023-07-02T15:30:46;22.50;58.20